Artemis — SWZE — position and weather

sailwx.info

Track history (hours):
 
Tides and Currents Weather Stations Pressure Air Temp Water Temp Dewpoint Dewpoint Depression Visibility Wind Speed Wind Dir Waves Ship Positions

Artemis

Last reported at 2014-Nov-24 10:14 UTC. Time now 2014-Nov-24 12:34 UTC.
Position N 37°38' E 024°07'.

Length 89 m; draft 3.1 m.

Type: Passenger vessel. MMSI: 237026300.

Date/timePositionNaut miles runAvg speedWind from/ knotsBaromVisibWave heightAir tempDewpointWater temp
2014-Nov-24 10:14N 37°38' E 024°07'16 8.3
2014-Nov-24 08:21N 37°27' E 024°20'2 2.2
2014-Nov-24 07:31N 37°27' E 024°22'1212.0
2014-Nov-24 06:33N 37°33' E 024°35'1913.7
2014-Nov-24 05:12N 37°27' E 024°57'1 0.8
2014-Nov-24 04:33N 37°26' E 024°56'0 0.0
2014-Nov-24 03:32N 37°26' E 024°56'0 0.0
2014-Nov-24 02:32N 37°26' E 024°56'0 0.0
2014-Nov-24 01:22N 37°26' E 024°56'0 0.0
2014-Nov-24 00:33N 37°26' E 024°56'0 0.0
2014-Nov-23 23:30N 37°26' E 024°56'0 0.0
2014-Nov-23 22:33N 37°26' E 024°56'0 0.0
2014-Nov-23 21:24N 37°26' E 024°56'7 4.0
2014-Nov-23 19:34N 37°20' E 025°01'1615.1
2014-Nov-23 18:32N 37°05' E 025°08'1010.4
2014-Nov-23 17:33N 37°13' E 024°60'1111.1
2014-Nov-23 16:33N 37°14' E 024°46'1312.9
2014-Nov-23 15:33N 37°08' E 024°31'12 9.8
2014-Nov-23 14:22N 36°60' E 024°40'1214.7
2014-Nov-23 13:33N 36°48' E 024°36'10 8.2
2014-Nov-23 12:23N 36°43' E 024°26'5 6.0
2014-Nov-23 11:33N 36°47' E 024°30'1111.0
2014-Nov-23 10:33N 36°56' E 024°38'1111.4
2014-Nov-23 09:33N 37°06' E 024°34'9 8.8
2014-Nov-23 08:33N 37°12' E 024°43'1312.7
2014-Nov-23 07:33N 37°11' E 024°59'7 7.2
2014-Nov-23 06:32N 37°07' E 025°06'1515.5
2014-Nov-23 05:33N 37°21' E 025°00'6 5.9
2014-Nov-23 04:33N 37°27' E 024°57'0 0.0
2014-Nov-23 03:32N 37°27' E 024°57'0 0.0
2014-Nov-23 02:31N 37°27' E 024°57'0 0.0
2014-Nov-23 01:32N 37°27' E 024°57'0 0.0
2014-Nov-23 00:33N 37°27' E 024°57'0 0.0
2014-Nov-22 23:29N 37°27' E 024°57'0 0.0
2014-Nov-22 22:32N 37°27' E 024°57'0 0.0
2014-Nov-22 21:29N 37°27' E 024°57'0 0.0
2014-Nov-22 20:32N 37°27' E 024°57'0 0.0
2014-Nov-22 19:30N 37°27' E 024°57'0 0.0
2014-Nov-22 18:32N 37°27' E 024°57'0 0.0
2014-Nov-22 17:30N 37°27' E 024°57'0 0.0
2014-Nov-22 16:20N 37°27' E 024°57'0 0.0
2014-Nov-22 15:32N 37°27' E 024°57'0 0.0
2014-Nov-22 14:31N 37°27' E 024°57'1414.2
2014-Nov-22 13:33N 37°14' E 025°04'10 9.9
2014-Nov-22 12:33N 37°05' E 025°09'1010.4
2014-Nov-22 11:33N 37°07' E 025°22'9 9.2
2014-Nov-22 10:33N 36°58' E 025°17'1515.3
2014-Nov-22 09:33N 36°43' E 025°15'8 7.5
2014-Nov-22 08:34N 36°39' E 025°07'10 9.7
2014-Nov-22 07:33N 36°39' E 024°55'1514.7
2014-Nov-22 06:33N 36°45' E 024°38'9 8.9
2014-Nov-22 05:33N 36°47' E 024°27'4 4.0
2014-Nov-22 04:33N 36°43' E 024°27'0 0.0
2014-Nov-22 03:33N 36°43' E 024°27'0 0.0
2014-Nov-22 02:34N 36°43' E 024°27'0 0.0
2014-Nov-22 01:33N 36°43' E 024°27'0 0.0
2014-Nov-22 00:34N 36°43' E 024°27'0 0.0
2014-Nov-21 23:34N 36°43' E 024°27'0 0.0
2014-Nov-21 22:33N 36°43' E 024°27'0 0.0
2014-Nov-21 21:33N 36°43' E 024°27'0 0.0
2014-Nov-21 20:34N 36°43' E 024°27'3 3.5
2014-Nov-21 19:33N 36°46' E 024°24'1010.5
2014-Nov-21 18:33N 36°45' E 024°37'1515.5
2014-Nov-21 17:33N 36°39' E 024°55'1110.6
2014-Nov-21 16:33N 36°39' E 025°08'7 6.6
2014-Nov-21 15:34N 36°44' E 025°14'1615.9
2014-Nov-21 14:34N 36°59' E 025°18'8 7.8
2014-Nov-21 13:33N 37°06' E 025°22'1111.1
2014-Nov-21 12:33N 37°05' E 025°08'1111.2
2014-Nov-21 11:33N 37°15' E 025°03'1211.9
2014-Nov-21 10:32N 37°26' E 024°57'1010.3
2014-Nov-21 09:33N 37°32' E 024°46'1514.8
2014-Nov-21 08:33N 37°30' E 024°27'6 5.6
2014-Nov-21 07:28N 37°27' E 024°20'15 7.5
2014-Nov-21 05:27N 37°39' E 024°07'10 0.6
2014-Nov-20 14:20N 37°32' E 024°16'9 9.2
2014-Nov-20 13:20N 37°24' E 024°23'1012.6
2014-Nov-20 12:33N 37°30' E 024°32'1915.4
2014-Nov-20 11:18N 37°29' E 024°57'3 3.9
2014-Nov-20 10:32N 37°26' E 024°57'1010.1
2014-Nov-20 09:33N 37°18' E 024°49'1515.3
2014-Nov-20 08:33N 37°09' E 024°35'10 8.8
2014-Nov-20 07:23N 36°59' E 024°40'1012.4
2014-Nov-20 06:33N 36°50' E 024°37'8 8.3
2014-Nov-20 05:33N 36°47' E 024°27'4 3.5
2014-Nov-20 04:33N 36°43' E 024°27'0 0.0
2014-Nov-20 03:33N 36°43' E 024°27'0 0.0
2014-Nov-20 02:33N 36°43' E 024°27'0 0.0
2014-Nov-20 01:33N 36°43' E 024°27'0 0.0
2014-Nov-19 22:33N 36°43' E 024°27'0 0.0
2014-Nov-19 21:33N 36°43' E 024°27'0 0.0
2014-Nov-19 20:33N 36°43' E 024°27'0 0.0
2014-Nov-19 19:33N 36°43' E 024°27'0 0.0
2014-Nov-19 18:33N 36°43' E 024°27'3 3.4
2014-Nov-19 17:33N 36°47' E 024°26'10 9.9
2014-Nov-19 16:33N 36°51' E 024°37'9 9.0
2014-Nov-19 15:32N 37°01' E 024°37'9 9.6
2014-Nov-19 14:33N 37°09' E 024°31'6 6.0
2014-Nov-19 13:33N 37°11' E 024°38'1615.5
2014-Nov-19 12:33N 37°20' E 024°54'7 6.5
2014-Nov-19 11:32N 37°26' E 024°57'1212.0
2014-Nov-19 10:34N 37°32' E 025°09'1414.3
2014-Nov-19 09:33N 37°41' E 024°55'2 0.8
2014-Nov-19 07:06N 37°43' E 024°54'916.4
2014-Nov-19 06:33N 37°36' E 025°02'8 7.6
2014-Nov-19 05:33N 37°29' E 025°02'5 4.4
2014-Nov-19 04:27N 37°27' E 024°57'0 0.0
2014-Nov-19 03:32N 37°27' E 024°57'0 0.0
2014-Nov-19 02:33N 37°27' E 024°57'0 0.0
2014-Nov-19 01:26N 37°27' E 024°57'0 0.0
2014-Nov-19 00:33N 37°27' E 024°57'0 0.0
2014-Nov-18 23:32N 37°27' E 024°57'0 0.0
2014-Nov-18 22:22N 37°27' E 024°57'0 0.0
2014-Nov-18 21:31N 37°27' E 024°57'1111.3
2014-Nov-18 20:31N 37°16' E 025°03'1212.4
2014-Nov-18 19:33N 37°05' E 025°09'1413.8
2014-Nov-18 18:34N 37°08' E 024°52'1615.5
2014-Nov-18 17:33N 37°08' E 024°33'10 9.8
2014-Nov-18 16:32N 36°59' E 024°40'1010.6
2014-Nov-18 15:34N 36°50' E 024°37'9 9.3
2014-Nov-18 14:34N 36°47' E 024°26'2 1.9
2014-Nov-18 13:33N 36°47' E 024°28'1110.8
2014-Nov-18 12:34N 36°54' E 024°38'1010.4
2014-Nov-18 11:33N 37°04' E 024°35'4 4.5
2014-Nov-18 10:33N 37°07' E 024°39'1515.1
2014-Nov-18 09:33N 37°06' E 024°58'7 6.6
2014-Nov-18 08:33N 37°07' E 025°06'1615.8
2014-Nov-18 07:33N 37°22' E 024°60'5 4.8
2014-Nov-18 06:33N 37°26' E 024°56'0 0.0
2014-Nov-18 05:31N 37°26' E 024°56'0 0.0
2014-Nov-18 04:32N 37°26' E 024°56'0 0.0
2014-Nov-18 03:31N 37°26' E 024°56'0 0.0
2014-Nov-18 02:33N 37°26' E 024°56'0 0.0
2014-Nov-18 01:33N 37°26' E 024°56'0 0.0
2014-Nov-18 00:33N 37°26' E 024°56'0 0.0
2014-Nov-17 23:32N 37°26' E 024°56'0 0.0
2014-Nov-17 22:29N 37°26' E 024°56'0 0.0
2014-Nov-17 21:32N 37°26' E 024°56'0 0.2
2014-Nov-17 20:30N 37°26' E 024°57'1011.0
2014-Nov-17 19:33N 37°30' E 024°45'1615.7
2014-Nov-17 18:32N 37°29' E 024°24'5 4.8
2014-Nov-17 17:33N 37°26' E 024°19'20 9.5
2014-Nov-17 15:30N 37°45' E 024°11'7 1.2
2014-Nov-17 10:09N 37°39' E 024°05'12 7.3
2014-Nov-17 08:29N 37°31' E 024°16'8 9.0
2014-Nov-17 07:33N 37°24' E 024°22'1312.8
2014-Nov-17 06:34N 37°30' E 024°37'1614.4
2014-Nov-17 05:28N 37°30' E 024°57'3 3.4
2014-Nov-17 04:32N 37°27' E 024°57'0 0.0
2014-Nov-17 03:32N 37°27' E 024°57'0 0.0
2014-Nov-17 02:32N 37°27' E 024°57'0 0.0
2014-Nov-17 01:32N 37°27' E 024°57'0 0.0
2014-Nov-17 00:33N 37°27' E 024°57'0 0.0
2014-Nov-16 23:32N 37°27' E 024°57'0 0.0
2014-Nov-16 22:32N 37°27' E 024°57'0 0.0
2014-Nov-16 21:27N 37°27' E 024°57'0 0.0
2014-Nov-16 20:33N 37°27' E 024°57'0 0.0
2014-Nov-16 19:33N 37°27' E 024°57'1110.7
2014-Nov-16 18:33N 37°17' E 025°02'1312.6
2014-Nov-16 17:33N 37°05' E 025°09'1414.1
2014-Nov-16 16:34N 37°08' E 024°52'1515.0
2014-Nov-16 15:33N 37°08' E 024°33'10 8.0
2014-Nov-16 14:18N 36°59' E 024°40'1013.6
2014-Nov-16 13:34N 36°50' E 024°37'9 9.2
2014-Nov-16 12:33N 36°47' E 024°26'1 1.0
2014-Nov-16 11:34N 36°47' E 024°25'1110.8
2014-Nov-16 10:33N 36°51' E 024°37'1010.5
2014-Nov-16 09:33N 37°01' E 024°37'7 6.8
2014-Nov-16 08:33N 37°08' E 024°35'1515.4
2014-Nov-16 07:33N 37°07' E 024°54'1010.4
2014-Nov-16 06:33N 37°06' E 025°07'1615.8
2014-Nov-16 05:33N 37°21' E 025°00'7 6.1
2014-Nov-16 04:28N 37°27' E 024°57'0 0.0
2014-Nov-16 03:30N 37°27' E 024°57'0 0.0
2014-Nov-16 02:26N 37°27' E 024°57'0 0.0
2014-Nov-16 01:24N 37°27' E 024°57'0 0.0
2014-Nov-16 00:33N 37°27' E 024°57'0 0.0
2014-Nov-15 23:29N 37°27' E 024°57'0 0.0
2014-Nov-15 22:19N 37°27' E 024°57'0 0.0
2014-Nov-15 21:25N 37°27' E 024°57'0 0.0
2014-Nov-15 20:33N 37°27' E 024°57'0 0.0
2014-Nov-15 19:29N 37°27' E 024°57'0 0.0
2014-Nov-15 18:33N 37°27' E 024°57'0 0.0
2014-Nov-15 17:31N 37°27' E 024°57'0 0.0
2014-Nov-15 16:33N 37°27' E 024°57'0 0.0
2014-Nov-15 15:32N 37°27' E 024°57'0 0.1
2014-Nov-15 14:33N 37°27' E 024°57'1514.8
2014-Nov-15 13:33N 37°13' E 025°04'8 8.2
2014-Nov-15 12:33N 37°05' E 025°08'1211.8
2014-Nov-15 11:34N 37°06' E 025°22'10 9.7
2014-Nov-15 10:34N 36°58' E 025°17'1515.0
2014-Nov-15 09:34N 36°43' E 025°15'7 7.1
2014-Nov-15 08:33N 36°39' E 025°08'10 9.7
2014-Nov-15 07:33N 36°39' E 024°56'1515.3
2014-Nov-15 06:33N 36°44' E 024°38'1010.0
2014-Nov-15 05:34N 36°48' E 024°26'4 4.2
2014-Nov-15 04:33N 36°43' E 024°27'0 0.0
2014-Nov-15 03:33N 36°43' E 024°27'0 0.0
2014-Nov-15 02:33N 36°43' E 024°27'0 0.0
2014-Nov-15 01:33N 36°43' E 024°27'6 5.6
2014-Nov-15 00:33N 36°46' E 024°33'1110.6
2014-Nov-14 23:33N 36°42' E 024°46'1211.6
2014-Nov-14 22:33N 36°37' E 024°58'1312.7
2014-Nov-14 21:34N 36°42' E 025°13'10 9.8
2014-Nov-14 20:33N 36°51' E 025°16'1515.4
2014-Nov-14 19:33N 37°06' E 025°20'5 5.4
2014-Nov-14 18:33N 37°10' E 025°14'7 6.7
2014-Nov-14 17:33N 37°08' E 025°06'1615.7
2014-Nov-14 16:34N 37°23' E 024°59'10 9.5
2014-Nov-14 15:29N 37°31' E 024°52'1515.7
2014-Nov-14 14:33N 37°30' E 024°34'16 8.0
2014-Nov-14 12:31N 37°36' E 024°15'7 6.0
2014-Nov-14 11:23N 37°39' E 024°07'  
Track history (hours):
 
Tides and Currents Weather Stations Pressure Air Temp Water Temp Dewpoint Dewpoint Depression Visibility Wind Speed Wind Dir Waves Ship Positions

Artemis

Last reported at 2014-Nov-24 10:14 UTC. Time now 2014-Nov-24 12:34 UTC.
Position N 37°38' E 024°07'.

Length 89 m; draft 3.1 m.

Type: Passenger vessel. MMSI: 237026300.

Date/timePositionNaut miles runAvg speedWind from/ knotsBaromVisibWave heightAir tempDewpointWater temp
2014-Nov-24 10:14N 37°38' E 024°07'16 8.3
2014-Nov-24 08:21N 37°27' E 024°20'2 2.2
2014-Nov-24 07:31N 37°27' E 024°22'1212.0
2014-Nov-24 06:33N 37°33' E 024°35'1913.7
2014-Nov-24 05:12N 37°27' E 024°57'1 0.8
2014-Nov-24 04:33N 37°26' E 024°56'0 0.0
2014-Nov-24 03:32N 37°26' E 024°56'0 0.0
2014-Nov-24 02:32N 37°26' E 024°56'0 0.0
2014-Nov-24 01:22N 37°26' E 024°56'0 0.0
2014-Nov-24 00:33N 37°26' E 024°56'0 0.0
2014-Nov-23 23:30N 37°26' E 024°56'0 0.0
2014-Nov-23 22:33N 37°26' E 024°56'0 0.0
2014-Nov-23 21:24N 37°26' E 024°56'7 4.0
2014-Nov-23 19:34N 37°20' E 025°01'1615.1
2014-Nov-23 18:32N 37°05' E 025°08'1010.4
2014-Nov-23 17:33N 37°13' E 024°60'1111.1
2014-Nov-23 16:33N 37°14' E 024°46'1312.9
2014-Nov-23 15:33N 37°08' E 024°31'12 9.8
2014-Nov-23 14:22N 36°60' E 024°40'1214.7
2014-Nov-23 13:33N 36°48' E 024°36'10 8.2
2014-Nov-23 12:23N 36°43' E 024°26'5 6.0
2014-Nov-23 11:33N 36°47' E 024°30'1111.0
2014-Nov-23 10:33N 36°56' E 024°38'1111.4
2014-Nov-23 09:33N 37°06' E 024°34'9 8.8
2014-Nov-23 08:33N 37°12' E 024°43'1312.7
2014-Nov-23 07:33N 37°11' E 024°59'7 7.2
2014-Nov-23 06:32N 37°07' E 025°06'1515.5
2014-Nov-23 05:33N 37°21' E 025°00'6 5.9
2014-Nov-23 04:33N 37°27' E 024°57'0 0.0
2014-Nov-23 03:32N 37°27' E 024°57'0 0.0
2014-Nov-23 02:31N 37°27' E 024°57'0 0.0
2014-Nov-23 01:32N 37°27' E 024°57'0 0.0
2014-Nov-23 00:33N 37°27' E 024°57'0 0.0
2014-Nov-22 23:29N 37°27' E 024°57'0 0.0
2014-Nov-22 22:32N 37°27' E 024°57'0 0.0
2014-Nov-22 21:29N 37°27' E 024°57'0 0.0
2014-Nov-22 20:32N 37°27' E 024°57'0 0.0
2014-Nov-22 19:30N 37°27' E 024°57'0 0.0
2014-Nov-22 18:32N 37°27' E 024°57'0 0.0
2014-Nov-22 17:30N 37°27' E 024°57'0 0.0
2014-Nov-22 16:20N 37°27' E 024°57'0 0.0
2014-Nov-22 15:32N 37°27' E 024°57'0 0.0
2014-Nov-22 14:31N 37°27' E 024°57'1414.2
2014-Nov-22 13:33N 37°14' E 025°04'10 9.9
2014-Nov-22 12:33N 37°05' E 025°09'1010.4
2014-Nov-22 11:33N 37°07' E 025°22'9 9.2
2014-Nov-22 10:33N 36°58' E 025°17'1515.3
2014-Nov-22 09:33N 36°43' E 025°15'8 7.5
2014-Nov-22 08:34N 36°39' E 025°07'10 9.7
2014-Nov-22 07:33N 36°39' E 024°55'1514.7
2014-Nov-22 06:33N 36°45' E 024°38'9 8.9
2014-Nov-22 05:33N 36°47' E 024°27'4 4.0
2014-Nov-22 04:33N 36°43' E 024°27'0 0.0
2014-Nov-22 03:33N 36°43' E 024°27'0 0.0
2014-Nov-22 02:34N 36°43' E 024°27'0 0.0
2014-Nov-22 01:33N 36°43' E 024°27'0 0.0
2014-Nov-22 00:34N 36°43' E 024°27'0 0.0
2014-Nov-21 23:34N 36°43' E 024°27'0 0.0
2014-Nov-21 22:33N 36°43' E 024°27'0 0.0
2014-Nov-21 21:33N 36°43' E 024°27'0 0.0
2014-Nov-21 20:34N 36°43' E 024°27'3 3.5
2014-Nov-21 19:33N 36°46' E 024°24'1010.5
2014-Nov-21 18:33N 36°45' E 024°37'1515.5
2014-Nov-21 17:33N 36°39' E 024°55'1110.6
2014-Nov-21 16:33N 36°39' E 025°08'7 6.6
2014-Nov-21 15:34N 36°44' E 025°14'1615.9
2014-Nov-21 14:34N 36°59' E 025°18'8 7.8
2014-Nov-21 13:33N 37°06' E 025°22'1111.1
2014-Nov-21 12:33N 37°05' E 025°08'1111.2
2014-Nov-21 11:33N 37°15' E 025°03'1211.9
2014-Nov-21 10:32N 37°26' E 024°57'1010.3
2014-Nov-21 09:33N 37°32' E 024°46'1514.8
2014-Nov-21 08:33N 37°30' E 024°27'6 5.6
2014-Nov-21 07:28N 37°27' E 024°20'15 7.5
2014-Nov-21 05:27N 37°39' E 024°07'10 0.6
2014-Nov-20 14:20N 37°32' E 024°16'9 9.2
2014-Nov-20 13:20N 37°24' E 024°23'1012.6
2014-Nov-20 12:33N 37°30' E 024°32'1915.4
2014-Nov-20 11:18N 37°29' E 024°57'3 3.9
2014-Nov-20 10:32N 37°26' E 024°57'1010.1
2014-Nov-20 09:33N 37°18' E 024°49'1515.3
2014-Nov-20 08:33N 37°09' E 024°35'10 8.8
2014-Nov-20 07:23N 36°59' E 024°40'1012.4
2014-Nov-20 06:33N 36°50' E 024°37'8 8.3
2014-Nov-20 05:33N 36°47' E 024°27'4 3.5
2014-Nov-20 04:33N 36°43' E 024°27'0 0.0
2014-Nov-20 03:33N 36°43' E 024°27'0 0.0
2014-Nov-20 02:33N 36°43' E 024°27'0 0.0
2014-Nov-20 01:33N 36°43' E 024°27'0 0.0
2014-Nov-19 22:33N 36°43' E 024°27'0 0.0
2014-Nov-19 21:33N 36°43' E 024°27'0 0.0
2014-Nov-19 20:33N 36°43' E 024°27'0 0.0
2014-Nov-19 19:33N 36°43' E 024°27'0 0.0
2014-Nov-19 18:33N 36°43' E 024°27'3 3.4
2014-Nov-19 17:33N 36°47' E 024°26'10 9.9
2014-Nov-19 16:33N 36°51' E 024°37'9 9.0
2014-Nov-19 15:32N 37°01' E 024°37'9 9.6
2014-Nov-19 14:33N 37°09' E 024°31'6 6.0
2014-Nov-19 13:33N 37°11' E 024°38'1615.5
2014-Nov-19 12:33N 37°20' E 024°54'7 6.5
2014-Nov-19 11:32N 37°26' E 024°57'1212.0
2014-Nov-19 10:34N 37°32' E 025°09'1414.3
2014-Nov-19 09:33N 37°41' E 024°55'2 0.8
2014-Nov-19 07:06N 37°43' E 024°54'916.4
2014-Nov-19 06:33N 37°36' E 025°02'8 7.6
2014-Nov-19 05:33N 37°29' E 025°02'5 4.4
2014-Nov-19 04:27N 37°27' E 024°57'0 0.0
2014-Nov-19 03:32N 37°27' E 024°57'0 0.0
2014-Nov-19 02:33N 37°27' E 024°57'0 0.0
2014-Nov-19 01:26N 37°27' E 024°57'0 0.0
2014-Nov-19 00:33N 37°27' E 024°57'0 0.0
2014-Nov-18 23:32N 37°27' E 024°57'0 0.0
2014-Nov-18 22:22N 37°27' E 024°57'0 0.0
2014-Nov-18 21:31N 37°27' E 024°57'1111.3
2014-Nov-18 20:31N 37°16' E 025°03'1212.4
2014-Nov-18 19:33N 37°05' E 025°09'1413.8
2014-Nov-18 18:34N 37°08' E 024°52'1615.5
2014-Nov-18 17:33N 37°08' E 024°33'10 9.8
2014-Nov-18 16:32N 36°59' E 024°40'1010.6
2014-Nov-18 15:34N 36°50' E 024°37'9 9.3
2014-Nov-18 14:34N 36°47' E 024°26'2 1.9
2014-Nov-18 13:33N 36°47' E 024°28'1110.8
2014-Nov-18 12:34N 36°54' E 024°38'1010.4
2014-Nov-18 11:33N 37°04' E 024°35'4 4.5
2014-Nov-18 10:33N 37°07' E 024°39'1515.1
2014-Nov-18 09:33N 37°06' E 024°58'7 6.6
2014-Nov-18 08:33N 37°07' E 025°06'1615.8
2014-Nov-18 07:33N 37°22' E 024°60'5 4.8
2014-Nov-18 06:33N 37°26' E 024°56'0 0.0
2014-Nov-18 05:31N 37°26' E 024°56'0 0.0
2014-Nov-18 04:32N 37°26' E 024°56'0 0.0
2014-Nov-18 03:31N 37°26' E 024°56'0 0.0
2014-Nov-18 02:33N 37°26' E 024°56'0 0.0
2014-Nov-18 01:33N 37°26' E 024°56'0 0.0
2014-Nov-18 00:33N 37°26' E 024°56'0 0.0
2014-Nov-17 23:32N 37°26' E 024°56'0 0.0
2014-Nov-17 22:29N 37°26' E 024°56'0 0.0
2014-Nov-17 21:32N 37°26' E 024°56'0 0.2
2014-Nov-17 20:30N 37°26' E 024°57'1011.0
2014-Nov-17 19:33N 37°30' E 024°45'1615.7
2014-Nov-17 18:32N 37°29' E 024°24'5 4.8
2014-Nov-17 17:33N 37°26' E 024°19'20 9.5
2014-Nov-17 15:30N 37°45' E 024°11'7 1.2
2014-Nov-17 10:09N 37°39' E 024°05'12 7.3
2014-Nov-17 08:29N 37°31' E 024°16'8 9.0
2014-Nov-17 07:33N 37°24' E 024°22'1312.8
2014-Nov-17 06:34N 37°30' E 024°37'1614.4
2014-Nov-17 05:28N 37°30' E 024°57'3 3.4
2014-Nov-17 04:32N 37°27' E 024°57'0 0.0
2014-Nov-17 03:32N 37°27' E 024°57'0 0.0
2014-Nov-17 02:32N 37°27' E 024°57'0 0.0
2014-Nov-17 01:32N 37°27' E 024°57'0 0.0
2014-Nov-17 00:33N 37°27' E 024°57'0 0.0
2014-Nov-16 23:32N 37°27' E 024°57'0 0.0
2014-Nov-16 22:32N 37°27' E 024°57'0 0.0
2014-Nov-16 21:27N 37°27' E 024°57'0 0.0
2014-Nov-16 20:33N 37°27' E 024°57'0 0.0
2014-Nov-16 19:33N 37°27' E 024°57'1110.7
2014-Nov-16 18:33N 37°17' E 025°02'1312.6
2014-Nov-16 17:33N 37°05' E 025°09'1414.1
2014-Nov-16 16:34N 37°08' E 024°52'1515.0
2014-Nov-16 15:33N 37°08' E 024°33'10 8.0
2014-Nov-16 14:18N 36°59' E 024°40'1013.6
2014-Nov-16 13:34N 36°50' E 024°37'9 9.2
2014-Nov-16 12:33N 36°47' E 024°26'1 1.0
2014-Nov-16 11:34N 36°47' E 024°25'1110.8
2014-Nov-16 10:33N 36°51' E 024°37'1010.5
2014-Nov-16 09:33N 37°01' E 024°37'7 6.8
2014-Nov-16 08:33N 37°08' E 024°35'1515.4
2014-Nov-16 07:33N 37°07' E 024°54'1010.4
2014-Nov-16 06:33N 37°06' E 025°07'1615.8
2014-Nov-16 05:33N 37°21' E 025°00'7 6.1
2014-Nov-16 04:28N 37°27' E 024°57'0 0.0
2014-Nov-16 03:30N 37°27' E 024°57'0 0.0
2014-Nov-16 02:26N 37°27' E 024°57'0 0.0
2014-Nov-16 01:24N 37°27' E 024°57'0 0.0
2014-Nov-16 00:33N 37°27' E 024°57'0 0.0
2014-Nov-15 23:29N 37°27' E 024°57'0 0.0
2014-Nov-15 22:19N 37°27' E 024°57'0 0.0
2014-Nov-15 21:25N 37°27' E 024°57'0 0.0
2014-Nov-15 20:33N 37°27' E 024°57'0 0.0
2014-Nov-15 19:29N 37°27' E 024°57'0 0.0
2014-Nov-15 18:33N 37°27' E 024°57'0 0.0
2014-Nov-15 17:31N 37°27' E 024°57'0 0.0
2014-Nov-15 16:33N 37°27' E 024°57'0 0.0
2014-Nov-15 15:32N 37°27' E 024°57'0 0.1
2014-Nov-15 14:33N 37°27' E 024°57'1514.8
2014-Nov-15 13:33N 37°13' E 025°04'8 8.2
2014-Nov-15 12:33N 37°05' E 025°08'1211.8
2014-Nov-15 11:34N 37°06' E 025°22'10 9.7
2014-Nov-15 10:34N 36°58' E 025°17'1515.0
2014-Nov-15 09:34N 36°43' E 025°15'7 7.1
2014-Nov-15 08:33N 36°39' E 025°08'10 9.7
2014-Nov-15 07:33N 36°39' E 024°56'1515.3
2014-Nov-15 06:33N 36°44' E 024°38'1010.0
2014-Nov-15 05:34N 36°48' E 024°26'4 4.2
2014-Nov-15 04:33N 36°43' E 024°27'0 0.0
2014-Nov-15 03:33N 36°43' E 024°27'0 0.0
2014-Nov-15 02:33N 36°43' E 024°27'0 0.0
2014-Nov-15 01:33N 36°43' E 024°27'6 5.6
2014-Nov-15 00:33N 36°46' E 024°33'1110.6
2014-Nov-14 23:33N 36°42' E 024°46'1211.6
2014-Nov-14 22:33N 36°37' E 024°58'1312.7
2014-Nov-14 21:34N 36°42' E 025°13'10 9.8
2014-Nov-14 20:33N 36°51' E 025°16'1515.4
2014-Nov-14 19:33N 37°06' E 025°20'5 5.4
2014-Nov-14 18:33N 37°10' E 025°14'7 6.7
2014-Nov-14 17:33N 37°08' E 025°06'1615.7
2014-Nov-14 16:34N 37°23' E 024°59'10 9.5
2014-Nov-14 15:29N 37°31' E 024°52'1515.7
2014-Nov-14 14:33N 37°30' E 024°34'16 8.0
2014-Nov-14 12:31N 37°36' E 024°15'7 6.0
2014-Nov-14 11:23N 37°39' E 024°07'  

Dump ship's entire track history